createdAt,value
2018-06-25T00:02:09.479Z,101049.06
2018-06-25T00:04:37.557Z,101050.00
2018-06-25T00:07:05.741Z,101050.92
2018-06-25T00:09:33.845Z,101046.52
2018-06-25T00:12:02.352Z,101045.80
2018-06-25T00:14:30.404Z,101053.45
2018-06-25T00:16:58.449Z,101046.95
2018-06-25T00:19:26.496Z,101055.51
2018-06-25T00:21:54.575Z,101055.02
2018-06-25T00:24:22.627Z,101054.31
2018-06-25T00:26:50.727Z,101050.39
2018-06-25T00:29:18.771Z,101046.90
2018-06-25T00:31:46.808Z,101044.56
2018-06-25T00:34:14.835Z,101042.23
2018-06-25T00:36:42.879Z,101045.23
2018-06-25T00:39:12.028Z,101031.70
2018-06-25T00:41:40.072Z,101044.61
2018-06-25T00:44:08.151Z,101045.66
2018-06-25T00:46:36.456Z,101048.84
2018-06-25T00:49:04.706Z,101047.93
2018-06-25T00:51:32.768Z,101035.77
2018-06-25T00:54:00.807Z,101039.20
2018-06-25T00:56:28.924Z,101040.25
2018-06-25T00:59:08.556Z,101035.72
2018-06-25T01:01:36.604Z,101032.75
2018-06-25T01:04:04.642Z,101032.75
2018-06-25T01:06:32.740Z,101029.87
2018-06-25T01:09:00.768Z,101030.45
2018-06-25T01:11:28.797Z,101028.84
2018-06-25T01:13:56.835Z,101029.07
2018-06-25T01:16:24.871Z,101031.40
2018-06-25T01:18:52.916Z,101033.94
2018-06-25T01:21:20.947Z,101042.25
2018-06-25T01:23:49.025Z,101042.42
2018-06-25T01:26:17.068Z,101038.61
2018-06-25T01:28:45.277Z,101037.45
2018-06-25T01:31:13.311Z,101035.91
2018-06-25T01:33:41.334Z,101034.72
2018-06-25T01:36:09.711Z,101032.80
2018-06-25T01:38:37.775Z,101037.29
2018-06-25T01:41:05.827Z,101030.16
2018-06-25T01:43:33.880Z,101035.56
2018-06-25T01:46:01.906Z,101035.03
2018-06-25T01:48:29.936Z,101034.76
2018-06-25T01:50:57.979Z,101038.09
2018-06-25T01:53:26.018Z,101037.19
2018-06-25T01:55:54.085Z,101035.91
2018-06-25T01:58:22.128Z,101034.02
2018-06-25T02:00:50.327Z,101032.16
2018-06-25T02:03:18.544Z,101029.59
2018-06-25T02:05:46.567Z,101017.36
2018-06-25T02:08:14.591Z,101022.75
2018-06-25T02:10:42.643Z,101018.59
2018-06-25T02:13:10.668Z,101009.41
2018-06-25T02:15:38.856Z,101018.78
2018-06-25T02:18:06.883Z,101009.66
2018-06-25T02:20:34.927Z,101011.27
2018-06-25T02:23:03.196Z,101014.62
2018-06-25T02:25:31.245Z,101010.91
2018-06-25T02:27:59.284Z,101016.45
2018-06-25T02:30:27.334Z,101028.13
2018-06-25T02:32:55.372Z,101028.91
2018-06-25T02:35:23.728Z,101029.72
2018-06-25T02:37:51.773Z,101015.53
2018-06-25T02:40:19.798Z,101017.79
2018-06-25T02:42:47.863Z,101019.41
2018-06-25T02:45:15.908Z,101019.27
2018-06-25T02:47:43.940Z,101025.39
2018-06-25T02:50:12.148Z,101032.11
2018-06-25T02:52:40.188Z,101025.39
2018-06-25T02:55:08.248Z,101023.80
2018-06-25T02:57:36.352Z,101030.73
2018-06-25T03:00:04.809Z,101033.27
2018-06-25T03:02:32.940Z,101031.88
2018-06-25T03:05:00.990Z,101031.88
2018-06-25T03:07:29.032Z,101038.84
2018-06-25T03:09:57.089Z,101039.98
2018-06-25T03:12:25.119Z,101034.69
2018-06-25T03:14:53.160Z,101038.37
2018-06-25T03:17:21.220Z,101042.29
2018-06-25T03:19:49.260Z,101042.48
2018-06-25T03:22:17.307Z,101046.27
2018-06-25T03:24:45.367Z,101056.78
2018-06-25T03:27:13.423Z,101058.40
2018-06-25T03:29:41.507Z,101056.06
2018-06-25T03:32:09.682Z,101057.69
2018-06-25T03:34:37.761Z,101054.68
2018-06-25T03:37:05.860Z,101062.75
2018-06-25T03:39:34.001Z,101068.09
2018-06-25T03:42:02.056Z,101070.26
2018-06-25T03:44:30.184Z,101069.69
2018-06-25T03:46:58.227Z,101072.92
2018-06-25T03:49:26.599Z,101072.79
2018-06-25T03:51:54.655Z,101071.03
2018-06-25T03:54:22.691Z,101068.73
2018-06-25T03:56:50.741Z,101070.79
2018-06-25T03:59:18.799Z,101068.22
2018-06-25T04:01:46.823Z,101068.22
2018-06-25T04:04:14.870Z,101077.92
2018-06-25T04:06:42.904Z,101075.73
2018-06-25T04:09:11.824Z,101075.73
2018-06-25T04:11:40.337Z,101077.72
2018-06-25T04:14:08.620Z,101078.50
2018-06-25T04:16:37.161Z,101078.16
2018-06-25T04:19:06.032Z,101082.98
2018-06-25T04:21:35.653Z,101081.09
2018-06-25T04:24:03.729Z,101078.32
2018-06-25T04:26:32.315Z,101076.25
2018-06-25T04:29:00.536Z,101079.70
2018-06-25T04:31:29.097Z,101074.76
2018-06-25T04:33:57.196Z,101084.33
2018-06-25T04:36:25.240Z,101088.92
2018-06-25T04:38:53.278Z,101079.49
2018-06-25T04:41:21.327Z,101090.08
2018-06-25T04:43:49.364Z,101097.81
2018-06-25T04:46:17.448Z,101095.27
2018-06-25T04:48:45.496Z,101097.33
2018-06-25T04:51:13.551Z,101095.14
2018-06-25T04:53:42.286Z,101107.13
2018-06-25T04:56:10.971Z,101101.66
2018-06-25T04:58:39.024Z,101105.19
2018-06-25T05:01:07.164Z,101107.48
2018-06-25T05:03:35.188Z,101099.11
2018-06-25T05:06:03.267Z,101100.88
2018-06-25T05:08:31.307Z,101098.87
2018-06-25T05:10:59.687Z,101094.95
2018-06-25T05:13:27.743Z,101093.25
2018-06-25T05:15:55.776Z,101097.78
2018-06-25T05:18:23.883Z,101098.88
2018-06-25T05:20:51.926Z,101101.22
2018-06-25T05:23:19.990Z,101108.59
2018-06-25T05:25:48.130Z,101070.92
2018-06-25T05:28:16.255Z,101111.75
2018-06-25T05:30:44.307Z,101103.77
2018-06-25T05:33:12.420Z,101114.87
2018-06-25T05:35:40.560Z,101113.05
2018-06-25T05:38:08.643Z,101122.38
2018-06-25T05:40:36.707Z,101120.42
2018-06-25T05:43:04.836Z,101123.42
2018-06-25T05:45:33.051Z,101122.76
2018-06-25T05:48:01.109Z,101117.16
2018-06-25T05:50:29.159Z,101119.09
2018-06-25T05:52:57.187Z,101116.58
2018-06-25T05:55:25.236Z,101124.75
2018-06-25T05:57:53.281Z,101122.45
2018-06-25T06:00:21.545Z,101124.27
2018-06-25T06:02:50.056Z,101121.76
2018-06-25T06:05:18.120Z,101121.23
2018-06-25T06:07:46.167Z,101121.47
2018-06-25T06:10:14.196Z,101128.70
2018-06-25T06:12:42.825Z,101126.95
2018-06-25T06:15:10.920Z,101130.29
2018-06-25T06:17:39.094Z,101137.47
2018-06-25T06:20:07.171Z,101135.93
2018-06-25T06:22:35.263Z,101141.63
2018-06-25T06:25:03.317Z,101145.50
2018-06-25T06:27:31.356Z,101148.51
2018-06-25T06:30:00.683Z,101155.80
2018-06-25T06:32:28.760Z,101151.14
2018-06-25T06:34:56.828Z,101153.70
2018-06-25T06:37:24.915Z,101151.36
2018-06-25T06:39:52.971Z,101157.07
2018-06-25T06:42:20.980Z,101153.84
2018-06-25T06:44:49.011Z,101151.20
2018-06-25T06:47:17.055Z,101151.00
2018-06-25T06:49:45.072Z,101149.00
2018-06-25T06:52:13.109Z,101151.78
2018-06-25T06:54:41.184Z,101148.51
2018-06-25T06:57:09.583Z,101154.15
2018-06-25T06:59:37.658Z,101161.00
2018-06-25T07:02:06.088Z,101159.16
2018-06-25T07:04:34.187Z,101161.19
2018-06-25T07:07:02.216Z,101166.64
2018-06-25T07:09:30.259Z,101169.88
2018-06-25T07:11:58.331Z,101168.84
2018-06-25T07:14:26.377Z,101167.09
2018-06-25T07:16:54.416Z,101173.60
2018-06-25T07:19:22.440Z,101172.87
2018-06-25T07:21:50.488Z,101176.66
2018-06-25T07:24:18.583Z,101171.77
2018-06-25T07:26:46.660Z,101166.20
2018-06-25T07:29:14.721Z,101161.91
2018-06-25T07:31:42.757Z,101168.36
2018-06-25T07:34:10.795Z,101173.53
2018-06-25T07:36:38.827Z,101171.03
2018-06-25T07:39:08.483Z,101159.98
2018-06-25T07:41:36.570Z,101167.02
2018-06-25T07:44:04.595Z,101166.44
2018-06-25T07:46:32.639Z,101174.19
2018-06-25T07:49:00.676Z,101172.50
2018-06-25T07:51:28.740Z,101171.55
2018-06-25T07:53:56.783Z,101176.22
2018-06-25T07:56:24.895Z,101178.67
2018-06-25T07:58:52.931Z,101175.73
2018-06-25T08:01:20.997Z,101183.56
2018-06-25T08:03:48.996Z,101182.39
2018-06-25T08:06:17.053Z,101175.42
2018-06-25T08:08:45.279Z,101180.87
2018-06-25T08:11:13.429Z,101180.02
2018-06-25T08:13:41.496Z,101179.18
2018-06-25T08:16:09.756Z,101176.55
2018-06-25T08:18:37.759Z,101176.86
2018-06-25T08:21:05.780Z,101176.86
2018-06-25T08:23:33.832Z,101174.86
2018-06-25T08:26:01.862Z,101177.73
2018-06-25T08:28:29.896Z,101177.11
2018-06-25T08:30:57.936Z,101188.55
2018-06-25T08:33:25.952Z,101190.97
2018-06-25T08:35:53.967Z,101195.16
2018-06-25T08:38:22.018Z,101202.47
2018-06-25T08:40:50.067Z,101203.27
2018-06-25T08:43:18.178Z,101204.78
2018-06-25T08:45:46.333Z,101204.66
2018-06-25T08:48:14.299Z,101209.92
2018-06-25T08:50:42.339Z,101202.84
2018-06-25T08:53:10.411Z,101198.02
2018-06-25T08:55:38.575Z,101209.89
2018-06-25T08:58:06.611Z,101205.84
2018-06-25T09:00:34.707Z,101196.22
2018-06-25T09:03:02.834Z,101201.64
2018-06-25T09:05:30.860Z,101208.95
2018-06-25T09:07:58.899Z,101212.25
2018-06-25T09:10:26.916Z,101203.83
2018-06-25T09:12:55.014Z,101212.24
2018-06-25T09:15:23.116Z,101212.63
2018-06-25T09:17:51.055Z,101210.52
2018-06-25T09:20:19.096Z,101213.31
2018-06-25T09:22:47.137Z,101216.30
2018-06-25T09:25:15.452Z,101220.88
2018-06-25T09:27:48.055Z,101224.73
2018-06-25T09:30:16.420Z,101224.66
2018-06-25T09:32:44.462Z,101221.30
2018-06-25T09:35:12.586Z,101218.97
2018-06-25T09:37:40.659Z,101218.70
2018-06-25T09:40:09.281Z,101216.00
2018-06-25T09:42:37.981Z,101216.48
2018-06-25T09:45:07.345Z,101207.36
2018-06-25T09:47:35.435Z,101215.19
2018-06-25T09:50:03.503Z,101196.01
2018-06-25T09:52:31.563Z,101200.24
2018-06-25T09:54:59.614Z,101201.06
2018-06-25T09:57:27.651Z,101203.88
2018-06-25T09:59:55.911Z,101199.48
2018-06-25T10:02:23.989Z,101199.02
2018-06-25T10:04:52.055Z,101204.02
2018-06-25T10:07:20.152Z,101209.08
2018-06-25T10:09:48.208Z,101208.88
2018-06-25T10:12:16.243Z,101212.51
2018-06-25T10:14:44.318Z,101206.09
2018-06-25T10:17:12.354Z,101204.47
2018-06-25T10:19:40.435Z,101204.71
2018-06-25T10:22:08.476Z,101199.11
2018-06-25T10:24:36.482Z,101202.90
2018-06-25T10:27:04.586Z,101207.49
2018-06-25T10:29:32.711Z,101191.88
2018-06-25T10:32:00.737Z,101197.11
2018-06-25T10:34:28.855Z,101195.86
2018-06-25T10:36:56.872Z,101207.92
2018-06-25T10:39:24.897Z,101210.70
2018-06-25T10:41:52.936Z,101203.69
2018-06-25T10:44:20.972Z,101203.52
2018-06-25T10:46:49.449Z,101199.47
2018-06-25T10:49:17.480Z,101204.77
2018-06-25T10:51:45.747Z,101215.97
2018-06-25T10:54:13.862Z,101209.47
2018-06-25T10:56:42.138Z,101203.03
2018-06-25T10:59:10.436Z,101211.20
2018-06-25T11:01:38.468Z,101206.02
2018-06-25T11:04:06.492Z,101205.23
2018-06-25T11:06:34.532Z,101201.63
2018-06-25T11:09:02.600Z,101201.88
2018-06-25T11:11:30.860Z,101204.75
2018-06-25T11:13:58.900Z,101203.63
2018-06-25T11:16:27.031Z,101199.66
2018-06-25T11:18:55.108Z,101205.84
2018-06-25T11:21:23.173Z,101200.20
2018-06-25T11:23:51.187Z,101199.09
2018-06-25T11:26:19.253Z,101212.67
2018-06-25T11:28:47.283Z,101221.27
2018-06-25T11:31:15.360Z,101229.16
2018-06-25T11:33:43.527Z,101233.11
2018-06-25T11:36:11.675Z,101238.84
2018-06-25T11:38:39.753Z,101244.98
2018-06-25T11:41:07.772Z,101240.53
2018-06-25T11:43:35.788Z,101240.24
2018-06-25T11:46:03.820Z,101238.70
2018-06-25T11:48:31.869Z,101244.77
2018-06-25T11:50:59.919Z,101247.92
2018-06-25T11:53:27.964Z,101246.09
2018-06-25T11:55:55.997Z,101248.27
2018-06-25T11:58:24.056Z,101243.02
2018-06-25T12:00:52.098Z,101239.03
2018-06-25T12:03:20.195Z,101226.84
2018-06-25T12:05:48.270Z,101231.36
2018-06-25T12:08:16.318Z,101218.41
2018-06-25T12:10:44.440Z,101226.67
2018-06-25T12:13:12.432Z,101227.52
2018-06-25T12:15:40.460Z,101229.30
2018-06-25T12:18:08.541Z,101226.33
2018-06-25T12:20:36.604Z,101231.51
2018-06-25T12:23:04.925Z,101233.89
2018-06-25T12:25:32.964Z,101223.87
2018-06-25T12:28:00.987Z,101229.56
2018-06-25T12:30:29.048Z,101230.29
2018-06-25T12:32:57.067Z,101230.88
2018-06-25T12:35:25.188Z,101185.85
2018-06-25T12:37:53.291Z,101218.73
2018-06-25T12:40:21.288Z,101208.09
2018-06-25T12:42:49.319Z,101214.82
2018-06-25T12:45:17.371Z,101218.40
2018-06-25T12:47:45.499Z,101225.36
2018-06-25T12:50:13.825Z,101212.61
2018-06-25T12:52:41.955Z,101219.07
2018-06-25T12:55:10.109Z,101223.62
2018-06-25T12:57:38.285Z,101220.33
2018-06-25T13:00:06.352Z,101224.03
2018-06-25T13:02:34.468Z,101225.51
2018-06-25T13:05:03.454Z,101222.70
2018-06-25T13:07:31.536Z,101228.18
2018-06-25T13:09:59.744Z,101225.44
2018-06-25T13:12:27.828Z,101228.47
2018-06-25T13:14:55.918Z,101221.81
2018-06-25T13:17:23.947Z,101219.13
2018-06-25T13:19:52.048Z,101224.02
2018-06-25T13:22:20.077Z,101220.64
2018-06-25T13:24:48.120Z,101218.55
2018-06-25T13:27:16.159Z,101210.41
2018-06-25T13:29:44.233Z,101204.95
2018-06-25T13:32:12.284Z,101210.23
2018-06-25T13:34:40.338Z,101216.77
2018-06-25T13:37:08.384Z,101217.95
2018-06-25T13:39:36.604Z,101214.48
2018-06-25T13:42:05.033Z,101218.49
2018-06-25T13:44:33.123Z,101203.03
2018-06-25T13:47:01.235Z,101214.09
2018-06-25T13:49:29.424Z,101213.59
2018-06-25T13:51:57.553Z,101218.55
2018-06-25T13:54:25.606Z,101213.64
2018-06-25T13:56:53.631Z,101207.50
2018-06-25T13:59:21.683Z,101216.95
2018-06-25T14:01:49.700Z,101213.92
2018-06-25T14:04:17.786Z,101211.81
2018-06-25T14:06:45.880Z,101204.59
2018-06-25T14:09:14.164Z,101203.95
2018-06-25T14:11:42.231Z,101204.83
2018-06-25T14:14:10.323Z,101199.81
2018-06-25T14:16:39.098Z,101199.94
2018-06-25T14:19:06.987Z,101202.41
2018-06-25T14:21:35.099Z,101214.13
2018-06-25T14:24:08.500Z,101214.03
2018-06-25T14:26:43.368Z,101206.37
2018-06-25T14:29:16.937Z,101211.79
2018-06-25T14:31:45.331Z,101208.98
2018-06-25T14:34:18.809Z,101200.75
2018-06-25T14:36:47.176Z,101212.83
2018-06-25T14:39:15.224Z,101214.56
2018-06-25T14:41:43.335Z,101205.33
2018-06-25T14:44:11.548Z,101207.02
2018-06-25T14:46:39.846Z,101203.39
2018-06-25T14:49:07.992Z,101206.49
2018-06-25T14:51:36.231Z,101205.63
2018-06-25T14:54:04.780Z,101205.46
2018-06-25T14:56:33.650Z,101204.34
2018-06-25T14:59:02.406Z,101203.43
2018-06-25T15:01:30.508Z,101201.59
2018-06-25T15:03:58.576Z,101195.20
2018-06-25T15:06:26.612Z,101196.28
2018-06-25T15:08:54.653Z,101194.88
2018-06-25T15:11:22.790Z,101199.44
2018-06-25T15:13:50.922Z,101204.59
2018-06-25T15:16:18.966Z,101197.81
2018-06-25T15:18:46.994Z,101195.80
2018-06-25T15:21:15.033Z,101204.73
2018-06-25T15:23:43.140Z,101199.34
2018-06-25T15:26:11.232Z,101201.16
2018-06-25T15:28:39.457Z,101203.20
2018-06-25T15:31:07.724Z,101206.59
2018-06-25T15:33:36.638Z,101203.37
2018-06-25T15:36:05.369Z,101201.52
2018-06-25T15:38:35.418Z,101199.56
2018-06-25T15:41:03.460Z,101193.21
2018-06-25T15:43:31.515Z,101196.86
2018-06-25T15:45:59.576Z,101200.76
2018-06-25T15:48:27.752Z,101201.11
2018-06-25T15:50:55.812Z,101194.80
2018-06-25T15:53:23.864Z,101189.50
2018-06-25T15:55:52.192Z,101190.05
2018-06-25T15:58:20.302Z,101186.44
2018-06-25T16:00:48.327Z,101184.81
2018-06-25T16:03:16.399Z,101182.06
2018-06-25T16:05:45.423Z,101178.96
2018-06-25T16:08:13.560Z,101184.22
2018-06-25T16:10:42.202Z,101183.38
2018-06-25T16:13:10.307Z,101181.07
2018-06-25T16:15:38.336Z,101182.34
2018-06-25T16:18:06.395Z,101182.83
2018-06-25T16:20:34.473Z,101181.06
2018-06-25T16:23:02.508Z,101187.20
2018-06-25T16:25:30.548Z,101180.24
2018-06-25T16:27:58.571Z,101175.94
2018-06-25T16:30:27.756Z,101171.63
2018-06-25T16:32:55.812Z,101173.92
2018-06-25T16:35:23.846Z,101166.62
2018-06-25T16:37:51.969Z,101174.55
2018-06-25T16:40:20.030Z,101166.92
2018-06-25T16:42:48.119Z,101125.52
2018-06-25T16:45:16.210Z,101153.62
2018-06-25T16:47:45.507Z,101162.10
2018-06-25T16:50:13.724Z,101162.11
2018-06-25T16:52:41.971Z,101166.95
2018-06-25T16:55:10.351Z,101173.09
2018-06-25T16:57:39.563Z,101164.23
2018-06-25T17:00:07.825Z,101170.46
2018-06-25T17:02:36.904Z,101171.87
2018-06-25T17:05:05.814Z,101171.19
2018-06-25T17:07:34.970Z,101170.78
2018-06-25T17:10:03.571Z,101165.95
2018-06-25T17:12:31.921Z,101173.83
2018-06-25T17:15:00.062Z,101174.93
2018-06-25T17:17:28.114Z,101173.98
2018-06-25T17:19:56.153Z,101178.12
2018-06-25T17:22:24.230Z,101175.72
2018-06-25T17:24:52.585Z,101172.97
2018-06-25T17:27:21.411Z,101170.00
2018-06-25T17:29:49.476Z,101168.21
2018-06-25T17:32:17.684Z,101161.55
2018-06-25T17:34:45.768Z,101157.97
2018-06-25T17:37:13.845Z,101153.33
2018-06-25T17:39:41.868Z,101156.73
2018-06-25T17:42:10.033Z,101161.42
2018-06-25T17:44:38.191Z,101164.39
2018-06-25T17:47:06.241Z,101164.05
2018-06-25T17:49:34.535Z,101169.66
2018-06-25T17:52:03.125Z,101170.28
2018-06-25T17:54:31.399Z,101172.06
2018-06-25T17:56:59.467Z,101170.28
2018-06-25T17:59:27.647Z,101166.66
2018-06-25T18:01:55.856Z,101169.08
2018-06-25T18:04:24.284Z,101170.06
2018-06-25T18:06:52.488Z,101173.45
2018-06-25T18:09:20.549Z,101172.45
2018-06-25T18:11:49.332Z,101179.07
2018-06-25T18:14:17.436Z,101178.86
2018-06-25T18:16:46.239Z,101178.64
2018-06-25T18:19:14.361Z,101183.07
2018-06-25T18:21:42.589Z,101181.45
2018-06-25T18:24:10.787Z,101180.26
2018-06-25T18:26:38.935Z,101181.05
2018-06-25T18:29:07.210Z,101174.45
2018-06-25T18:31:35.340Z,101177.66
2018-06-25T18:34:04.058Z,101180.66
2018-06-25T18:36:32.260Z,101178.84
2018-06-25T18:39:00.578Z,101177.06
2018-06-25T18:41:28.916Z,101177.06
2018-06-25T18:43:57.036Z,101184.44
2018-06-25T18:46:25.114Z,101182.66
2018-06-25T18:48:53.152Z,101180.26
2018-06-25T18:51:21.200Z,101173.43
2018-06-25T18:53:49.523Z,101178.41
2018-06-25T18:56:17.834Z,101177.20
2018-06-25T18:58:46.025Z,101180.41
2018-06-25T19:01:14.496Z,101188.98
2018-06-25T19:03:43.001Z,101191.33
2018-06-25T19:06:11.283Z,101194.50
2018-06-25T19:08:39.498Z,101198.10
2018-06-25T19:11:07.785Z,101192.07
2018-06-25T19:13:36.373Z,101195.23
2018-06-25T19:16:04.954Z,101200.20
2018-06-25T19:18:33.528Z,101204.94
2018-06-25T19:21:01.631Z,101214.62
2018-06-25T19:23:29.729Z,101214.59
2018-06-25T19:25:57.952Z,101218.12
2018-06-25T19:28:26.124Z,101218.52
2018-06-25T19:30:54.239Z,101226.16
2018-06-25T19:33:22.426Z,101229.26
2018-06-25T19:35:54.957Z,101233.37
2018-06-25T19:38:23.493Z,101231.05
2018-06-25T19:40:51.577Z,101229.49
2018-06-25T19:43:19.965Z,101229.09
2018-06-25T19:45:48.365Z,101228.32
2018-06-25T19:48:20.510Z,101230.00
2018-06-25T19:50:48.580Z,101232.47
2018-06-25T19:53:16.639Z,101239.69
2018-06-25T19:55:44.800Z,101245.20
2018-06-25T19:58:13.111Z,101245.78
2018-06-25T20:00:41.588Z,101246.14
2018-06-25T20:03:10.016Z,101241.86
2018-06-25T20:05:39.538Z,101249.39
2018-06-25T20:08:07.740Z,101248.88
2018-06-25T20:10:36.490Z,101245.53
2018-06-25T20:13:04.936Z,101249.58
2018-06-25T20:15:33.083Z,101254.09
2018-06-25T20:18:01.545Z,101255.38
2018-06-25T20:20:29.846Z,101264.66
2018-06-25T20:22:58.256Z,101265.92
2018-06-25T20:25:27.358Z,101262.30
2018-06-25T20:27:55.424Z,101259.64
2018-06-25T20:30:23.601Z,101267.22
2018-06-25T20:32:51.639Z,101258.45
2018-06-25T20:35:19.872Z,101267.13
2018-06-25T20:37:48.019Z,101274.30
2018-06-25T20:43:01.235Z,101276.30
2018-06-25T20:45:29.319Z,101284.48
2018-06-25T20:47:57.403Z,101279.57
2018-06-25T20:50:25.676Z,101280.66
2018-06-25T20:52:53.851Z,101283.92
2018-06-25T20:55:22.000Z,101289.99
2018-06-25T20:57:50.060Z,101283.27
2018-06-25T21:00:18.134Z,101302.08
2018-06-25T21:02:46.457Z,101306.16
2018-06-25T21:05:14.496Z,101299.05
2018-06-25T21:07:42.552Z,101298.04
2018-06-25T21:10:10.678Z,101301.98
2018-06-25T21:12:38.704Z,101303.00
2018-06-25T21:15:06.871Z,101304.09
2018-06-25T21:17:34.916Z,101310.31
2018-06-25T21:20:03.277Z,101312.41
2018-06-25T21:22:31.362Z,101311.97
2018-06-25T21:24:59.563Z,101317.95
2018-06-25T21:27:27.665Z,101311.24
2018-06-25T21:29:55.727Z,101308.61
2018-06-25T21:32:23.993Z,101311.39
2018-06-25T21:34:52.132Z,101307.94
2018-06-25T21:37:20.172Z,101305.42
2018-06-25T21:39:48.394Z,101312.71
2018-06-25T21:42:16.464Z,101318.13
2018-06-25T21:44:44.504Z,101315.78
2018-06-25T21:47:13.207Z,101316.84
2018-06-25T21:49:41.399Z,101308.99
2018-06-25T21:52:09.486Z,101299.55
2018-06-25T21:54:37.688Z,101302.19
2018-06-25T21:57:05.755Z,101295.46
2018-06-25T21:59:33.855Z,101306.39
2018-06-25T22:02:01.968Z,101300.40
2018-06-25T22:04:30.037Z,101298.10
2018-06-25T22:06:58.084Z,101296.98
2018-06-25T22:09:26.169Z,101299.09
2018-06-25T22:11:54.225Z,101304.23
2018-06-25T22:14:22.295Z,101301.66
2018-06-25T22:16:50.423Z,101305.98
2018-06-25T22:19:18.582Z,101305.53
2018-06-25T22:21:46.634Z,101306.25
2018-06-25T22:24:14.843Z,101305.77
2018-06-25T22:26:42.921Z,101303.94
2018-06-25T22:29:11.013Z,101306.59
2018-06-25T22:31:39.305Z,101307.84
2018-06-25T22:34:07.403Z,101307.89
2018-06-25T22:36:35.612Z,101303.36
2018-06-25T22:39:08.569Z,101308.08
2018-06-25T22:41:36.879Z,101302.47
2018-06-25T22:44:10.061Z,101292.41
2018-06-25T22:46:39.879Z,101296.75
2018-06-25T22:49:08.572Z,101285.92
2018-06-25T22:51:37.242Z,101283.62
2018-06-25T22:54:07.015Z,101294.92
2018-06-25T22:56:36.957Z,101296.06
2018-06-25T22:59:05.418Z,101297.89
2018-06-25T23:01:33.484Z,101291.33
2018-06-25T23:04:01.700Z,101297.77
2018-06-25T23:06:29.735Z,101301.48
2018-06-25T23:08:57.775Z,101310.85
2018-06-25T23:11:25.856Z,101318.23
2018-06-25T23:13:53.888Z,101310.34
2018-06-25T23:16:21.942Z,101318.61
2018-06-25T23:18:49.989Z,101316.55
2018-06-25T23:21:18.042Z,101313.54
2018-06-25T23:23:46.072Z,101314.59
2018-06-25T23:26:14.121Z,101309.17
2018-06-25T23:28:42.318Z,101310.32
2018-06-25T23:31:10.367Z,101319.09
2018-06-25T23:33:38.435Z,101320.58
2018-06-25T23:36:06.599Z,101316.78
2018-06-25T23:38:34.695Z,101309.67
2018-06-25T23:41:03.328Z,101310.34
2018-06-25T23:43:31.386Z,101299.25
2018-06-25T23:45:59.571Z,101313.39
2018-06-25T23:48:27.964Z,101325.60
2018-06-25T23:50:55.988Z,101325.89
2018-06-25T23:53:24.075Z,101333.48
2018-06-25T23:55:52.638Z,101335.41
2018-06-25T23:58:20.813Z,101333.45
